Elmer City, Washington
Current Conditions -  °F | °C
As of 8:53 PM on Friday 31 Oct 2014 (Local Time) from KOMK Reporting Station
Scattered Clouds Scattered Clouds  
Wind Chill: 46°   Ceiling: Unl
Heat Index: 48°   Visibility: 9mi
Dew Point: 47°   Wind: 5mph
Humidity: 96%   Direction: 220°SW
Pressure: 29.76"   Gusts: NA
Location:  48°N, 118.95°W
Report Text: KOMK 010353Z AUTO 22004KT 9SM FEW023 SCT070 09/08 A2976 RMK AO2 SLP082 T00890083
Loading
Personal Weather Stations






























Interactive Weather Map New forecast layout! Learn more

10-Day Weather Forecast

Advertisements
Track Severe Weather on mobile